Time;durP1;ratioP1;P1;durP2;ratioP2;P2;SDS_P1;SDS_P2;PMS_P1;PMS_P2;Temp;Humidity;BMP_temperature;BMP_pressure;BME280_temperature;BME280_humidity;BME280_pressure;Samples;Min_cycle;Max_cycle;Signal;HPM_P1;HPM_P2
2021/08/19 00:00:05;;;;;;;270.92;40.70;;;11.60;99.90;;;;;;6313371;22;20456;-95
2021/08/19 00:02:32;;;;;;;247.82;38.83;;;11.70;99.90;;;;;;6313969;22;20402;-95
2021/08/19 00:05:00;;;;;;;210.68;40.10;;;11.80;99.90;;;;;;6313471;22;20384;-95
2021/08/19 00:07:27;;;;;;;264.17;42.65;;;11.70;99.90;;;;;;6312952;22;20387;-95
2021/08/19 00:09:55;;;;;;;210.35;40.30;;;11.70;99.90;;;;;;6314176;22;20380;-94
2021/08/19 00:12:22;;;;;;;249.82;45.17;;;11.70;99.90;;;;;;6313247;22;20400;-94
2021/08/19 00:14:49;;;;;;;260.58;45.50;;;11.90;99.90;;;;;;6313480;22;20384;-95
2021/08/19 00:17:18;;;;;;;192.50;37.60;;;11.80;99.90;;;;;;6314156;22;20377;-95
2021/08/19 00:19:45;;;;;;;221.85;40.03;;;11.90;99.90;;;;;;6312604;22;20404;-95
2021/08/19 00:22:12;;;;;;;188.18;39.15;;;11.80;99.90;;;;;;6313473;22;20405;-96
2021/08/19 00:24:39;;;;;;;182.48;36.78;;;11.90;99.90;;;;;;6312859;22;20416;-94
2021/08/19 00:27:06;;;;;;;167.05;39.17;;;11.90;99.90;;;;;;6313095;22;20771;-94
2021/08/19 00:29:33;;;;;;;204.35;41.55;;;11.80;99.90;;;;;;6312391;22;20397;-96
2021/08/19 00:32:04;;;;;;;163.68;34.65;;;11.90;99.90;;;;;;6312860;22;20486;-95
2021/08/19 00:34:31;;;;;;;177.23;38.28;;;11.90;99.90;;;;;;6313563;22;20547;-96
2021/08/19 00:36:58;;;;;;;146.50;29.63;;;11.90;99.90;;;;;;6312716;22;20377;-94
2021/08/19 00:39:25;;;;;;;168.13;34.53;;;11.90;99.90;;;;;;6312646;22;20477;-94
2021/08/19 00:41:52;;;;;;;172.43;32.83;;;11.90;99.90;;;;;;6313362;22;20381;-96
2021/08/19 00:44:20;;;;;;;206.98;38.55;;;11.90;99.90;;;;;;6312277;22;20448;-94
2021/08/19 00:46:47;;;;;;;154.80;33.75;;;11.70;99.90;;;;;;6312784;22;20476;-94
2021/08/19 00:49:15;;;;;;;150.40;26.83;;;11.70;99.90;;;;;;6313004;22;20403;-96
2021/08/19 00:51:46;;;;;;;170.90;28.67;;;11.60;99.90;;;;;;6313397;22;20400;-94
2021/08/19 00:54:22;;;;;;;239.73;33.40;;;11.70;99.90;;;;;;6312755;22;20766;-95
2021/08/19 00:57:00;;;;;;;187.10;25.83;;;11.60;99.90;;;;;;6313115;22;20407;-96
2021/08/19 00:59:29;;;;;;;177.73;28.20;;;11.50;99.90;;;;;;6312593;22;20853;-96
2021/08/19 01:02:00;;;;;;;182.40;28.63;;;11.70;99.90;;;;;;6312874;22;20753;-95
2021/08/19 01:04:32;;;;;;;222.20;35.10;;;11.60;99.90;;;;;;6312908;22;20410;-95
2021/08/19 01:07:00;;;;;;;188.98;27.63;;;11.60;99.90;;;;;;6312183;22;20783;-94
2021/08/19 01:09:29;;;;;;;206.80;28.15;;;11.50;99.90;;;;;;6334983;22;20427;-95
2021/08/19 01:11:56;;;;;;;260.60;37.30;;;11.50;99.90;;;;;;6320259;22;20834;-95
2021/08/19 01:14:23;;;;;;;132.40;25.42;;;11.30;99.90;;;;;;6311754;22;20756;-94
2021/08/19 01:16:51;;;;;;;225.82;37.15;;;11.40;99.90;;;;;;6312155;22;20380;-94
2021/08/19 01:19:22;;;;;;;157.27;29.02;;;11.20;99.90;;;;;;6312030;22;20409;-94
2021/08/19 01:21:51;;;;;;;176.70;34.10;;;11.30;99.90;;;;;;6313272;22;20377;-95
2021/08/19 01:24:18;;;;;;;172.85;32.92;;;11.50;99.90;;;;;;6313480;22;20387;-94
2021/08/19 01:26:48;;;;;;;261.93;43.27;;;11.50;99.90;;;;;;6313156;22;20456;-95
2021/08/19 01:29:15;;;;;;;200.25;39.65;;;11.50;99.90;;;;;;6312033;22;20565;-95
2021/08/19 01:31:58;;;;;;;148.05;36.13;;;11.50;99.90;;;;;;6311888;22;20455;-96
2021/08/19 01:34:26;;;;;;;192.23;41.80;;;11.60;99.90;;;;;;6313204;22;20387;-94
2021/08/19 01:36:53;;;;;;;176.43;38.20;;;11.70;99.90;;;;;;6312689;22;20397;-95
2021/08/19 01:39:23;;;;;;;200.07;38.65;;;11.60;99.90;;;;;;6313267;22;20873;-95
2021/08/19 01:41:50;;;;;;;143.50;36.80;;;11.70;99.90;;;;;;6313561;22;20459;-95
2021/08/19 01:44:18;;;;;;;133.98;34.92;;;11.70;99.90;;;;;;6311714;22;20472;-95
2021/08/19 01:47:03;;;;;;;111.63;31.48;;;11.70;99.90;;;;;;6312301;22;20472;-95
2021/08/19 01:49:32;;;;;;;113.10;32.15;;;11.80;99.90;;;;;;6311999;22;20417;-95
2021/08/19 01:52:03;;;;;;;110.97;31.17;;;11.80;99.90;;;;;;6312778;22;20377;-95
2021/08/19 01:54:31;;;;;;;103.95;30.35;;;11.80;99.90;;;;;;6312901;22;20637;-95
2021/08/19 01:56:58;;;;;;;91.15;28.58;;;11.90;99.90;;;;;;6312431;22;20464;-95
2021/08/19 01:59:27;;;;;;;93.38;28.13;;;11.90;99.90;;;;;;6311904;22;20479;-96
2021/08/19 02:01:55;;;;;;;93.60;28.63;;;12.00;99.90;;;;;;6311987;22;20411;-95
2021/08/19 02:04:23;;;;;;;129.52;30.65;;;12.00;99.90;;;;;;6312089;22;20384;-95
2021/08/19 02:06:50;;;;;;;154.82;33.58;;;11.90;99.90;;;;;;6312710;22;20408;-96
2021/08/19 02:09:17;;;;;;;128.73;32.45;;;11.90;99.90;;;;;;6311548;22;20416;-95
2021/08/19 02:11:44;;;;;;;130.38;31.80;;;11.90;99.90;;;;;;6312715;22;20400;-95
2021/08/19 02:14:12;;;;;;;119.95;30.33;;;11.90;99.90;;;;;;6311592;22;20385;-95
2021/08/19 02:16:39;;;;;;;136.77;31.92;;;12.10;99.90;;;;;;6311839;22;20460;-95
2021/08/19 02:19:06;;;;;;;167.63;34.17;;;12.10;99.90;;;;;;6311587;22;20380;-94
2021/08/19 02:21:33;;;;;;;108.07;29.83;;;12.10;99.90;;;;;;6311643;22;20459;-95
2021/08/19 02:24:01;;;;;;;90.97;26.98;;;12.10;99.90;;;;;;6312425;22;20905;-94
2021/08/19 02:26:28;;;;;;;96.70;28.02;;;12.20;99.90;;;;;;6312735;22;20401;-96
2021/08/19 02:28:55;;;;;;;102.50;28.60;;;12.20;99.90;;;;;;6311320;22;20721;-95
2021/08/19 02:31:22;;;;;;;116.47;28.77;;;12.20;99.90;;;;;;6311627;22;20376;-94
2021/08/19 02:33:49;;;;;;;100.70;26.50;;;12.10;99.90;;;;;;6311720;22;20443;-95
2021/08/19 02:36:17;;;;;;;111.65;27.40;;;12.40;99.90;;;;;;6311674;22;20383;-95
2021/08/19 02:38:44;;;;;;;96.87;26.03;;;12.50;99.90;;;;;;6312368;22;20845;-96
2021/08/19 02:41:12;;;;;;;98.60;27.20;;;12.50;99.90;;;;;;6312254;22;20423;-93
2021/08/19 02:43:42;;;;;;;125.53;30.17;;;12.60;99.90;;;;;;6311205;22;20492;-95
2021/08/19 02:46:11;;;;;;;104.00;27.52;;;12.30;99.90;;;;;;6311720;22;20381;-96
2021/08/19 02:48:39;;;;;;;144.32;31.63;;;12.30;99.90;;;;;;6311869;22;20416;-94
2021/08/19 02:51:06;;;;;;;122.70;29.15;;;12.30;99.90;;;;;;6330044;22;20403;-95
2021/08/19 02:53:33;;;;;;;138.02;32.05;;;12.50;99.90;;;;;;6325327;22;20373;-94
2021/08/19 02:56:00;;;;;;;137.00;31.08;;;12.40;99.90;;;;;;6311953;22;20463;-95
2021/08/19 02:58:27;;;;;;;182.38;36.28;;;12.30;99.90;;;;;;6310754;22;20476;-95
2021/08/19 03:00:54;;;;;;;144.60;34.03;;;12.10;99.90;;;;;;6311826;22;20409;-95
2021/08/19 03:03:22;;;;;;;164.40;33.25;;;12.10;99.90;;;;;;6314420;22;20435;-96
2021/08/19 03:05:49;;;;;;;119.70;30.25;;;12.10;99.90;;;;;;6314847;22;20376;-95
2021/08/19 03:08:16;;;;;;;117.40;30.35;;;12.20;99.90;;;;;;6313490;22;20381;-95
2021/08/19 03:10:43;;;;;;;172.52;34.25;;;12.30;99.90;;;;;;6313734;22;20381;-94
2021/08/19 03:13:10;;;;;;;149.85;34.30;;;12.10;99.90;;;;;;6313411;22;20380;-95
2021/08/19 03:15:37;;;;;;;143.50;34.37;;;12.10;99.90;;;;;;6313681;22;20490;-96
2021/08/19 03:18:06;;;;;;;119.43;31.40;;;12.10;99.90;;;;;;6313308;22;20381;-96
2021/08/19 03:20:33;;;;;;;100.13;28.33;;;12.40;99.90;;;;;;6314771;22;20408;-94
2021/08/19 03:23:01;;;;;;;138.18;31.55;;;12.40;99.90;;;;;;6313113;22;20387;-95
2021/08/19 03:25:28;;;;;;;124.27;30.43;;;12.30;99.90;;;;;;6313713;22;20384;-95
2021/08/19 03:28:00;;;;;;;115.03;29.00;;;12.40;99.90;;;;;;6313600;22;20385;-94
2021/08/19 03:30:28;;;;;;;124.37;31.57;;;12.40;99.90;;;;;;6314130;22;20790;-95
2021/08/19 03:32:55;;;;;;;134.68;29.00;;;12.20;99.90;;;;;;6313633;22;20400;-95
2021/08/19 03:35:22;;;;;;;113.55;27.33;;;12.40;99.90;;;;;;6313236;22;20890;-94
2021/08/19 03:37:49;;;;;;;114.95;27.95;;;12.70;99.90;;;;;;6313713;22;20411;-94
2021/08/19 03:40:17;;;;;;;123.63;28.38;;;12.60;99.90;;;;;;6313636;22;20456;-95
2021/08/19 03:42:44;;;;;;;137.52;31.58;;;12.50;99.90;;;;;;6313245;22;20419;-96
2021/08/19 03:45:12;;;;;;;140.57;33.47;;;12.20;99.90;;;;;;6312809;22;20892;-94
2021/08/19 03:47:39;;;;;;;127.17;29.97;;;12.10;99.90;;;;;;6313667;22;20407;-95
2021/08/19 03:50:08;;;;;;;135.32;30.70;;;12.30;99.90;;;;;;6312884;22;20393;-95
2021/08/19 03:52:35;;;;;;;91.50;25.63;;;12.30;99.90;;;;;;6313349;22;20381;-94
2021/08/19 03:55:04;;;;;;;117.75;27.20;;;12.60;99.90;;;;;;6313146;22;20468;-95
2021/08/19 03:57:31;;;;;;;145.88;29.58;;;12.50;99.90;;;;;;6312238;22;20377;-94
2021/08/19 03:59:58;;;;;;;115.95;27.15;;;12.40;99.90;;;;;;6314940;22;20380;-94
2021/08/19 04:02:25;;;;;;;156.68;30.50;;;12.50;99.90;;;;;;6313510;22;20453;-92
2021/08/19 04:04:53;;;;;;;99.55;26.98;;;12.50;99.90;;;;;;6313309;22;20389;-93
2021/08/19 04:07:20;;;;;;;102.35;26.00;;;12.60;99.90;;;;;;6312911;22;20879;-93
2021/08/19 04:09:47;;;;;;;125.47;27.85;;;12.70;99.90;;;;;;6313579;22;20393;-94
2021/08/19 04:12:14;;;;;;;79.40;23.13;;;12.60;99.90;;;;;;6313154;22;20396;-92
2021/08/19 04:14:41;;;;;;;95.85;25.38;;;12.80;99.90;;;;;;6313400;22;20887;-93
2021/08/19 04:17:09;;;;;;;87.75;25.65;;;12.60;99.90;;;;;;6313981;22;20381;-93
2021/08/19 04:19:36;;;;;;;107.05;26.95;;;12.50;99.90;;;;;;6312923;22;20387;-93
2021/08/19 04:22:03;;;;;;;92.65;25.02;;;12.30;99.90;;;;;;6313969;22;20460;-94
2021/08/19 04:24:33;;;;;;;85.97;23.30;;;12.50;99.90;;;;;;6291698;22;20403;-93
2021/08/19 04:27:00;;;;;;;101.95;28.02;;;12.50;99.90;;;;;;6314479;22;20396;-94
2021/08/19 04:29:33;;;;;;;104.78;27.30;;;12.30;99.90;;;;;;6312565;22;20391;-92
2021/08/19 04:32:02;;;;;;;113.90;29.45;;;12.30;99.90;;;;;;6318576;22;20369;-95
2021/08/19 04:34:29;;;;;;;112.75;29.75;;;12.30;99.90;;;;;;6334447;22;20380;-95
2021/08/19 04:36:56;;;;;;;124.10;30.77;;;12.30;99.90;;;;;;6315350;22;20381;-93
2021/08/19 04:39:24;;;;;;;114.07;27.63;;;12.30;99.90;;;;;;6312850;22;20706;-94
2021/08/19 04:41:51;;;;;;;88.85;25.48;;;12.50;99.90;;;;;;6313149;22;20377;-94
2021/08/19 04:44:18;;;;;;;99.43;26.95;;;12.60;99.90;;;;;;6313912;22;20698;-93
2021/08/19 04:46:45;;;;;;;87.60;26.15;;;12.50;99.90;;;;;;6313836;22;20448;-93
2021/08/19 04:49:13;;;;;;;101.85;27.73;;;12.60;99.90;;;;;;6313655;22;20420;-93
2021/08/19 04:51:41;;;;;;;118.10;28.15;;;12.40;99.90;;;;;;6312848;22;20377;-94
2021/08/19 04:54:09;;;;;;;89.70;26.52;;;12.40;99.90;;;;;;6312496;22;20389;-93
2021/08/19 04:56:40;;;;;;;86.20;27.40;;;12.40;99.90;;;;;;6312901;22;20862;-93
2021/08/19 04:59:09;;;;;;;77.15;26.60;;;12.30;99.90;;;;;;6311734;22;20470;-93
2021/08/19 05:01:38;;;;;;;75.43;25.70;;;12.30;99.90;;;;;;6312453;22;20407;-93
2021/08/19 05:04:07;;;;;;;73.78;26.10;;;12.50;99.90;;;;;;6313085;22;20381;-93
2021/08/19 05:06:35;;;;;;;82.85;27.42;;;12.40;99.90;;;;;;6312907;22;20369;-92
2021/08/19 05:09:05;;;;;;;80.72;27.90;;;12.40;99.90;;;;;;6313059;22;20387;-94
2021/08/19 05:11:32;;;;;;;80.55;27.52;;;12.30;99.90;;;;;;6312577;22;20381;-93
2021/08/19 05:13:59;;;;;;;86.65;29.10;;;12.40;99.90;;;;;;6312381;22;20383;-94
2021/08/19 05:16:28;;;;;;;95.70;29.52;;;12.40;99.90;;;;;;6312896;22;20387;-94
2021/08/19 05:19:01;;;;;;;93.20;30.20;;;12.40;99.90;;;;;;6314201;22;20406;-94
2021/08/19 05:21:32;;;;;;;97.18;30.02;;;12.40;99.90;;;;;;6353123;22;20389;-94
2021/08/19 05:23:59;;;;;;;80.68;26.55;;;12.60;99.90;;;;;;6374604;22;20374;-93
2021/08/19 05:26:26;;;;;;;120.00;32.60;;;12.80;99.90;;;;;;6374545;22;20464;-95
2021/08/19 05:28:53;;;;;;;96.90;30.45;;;12.70;99.90;;;;;;6375319;22;20910;-93
2021/08/19 05:31:20;;;;;;;85.88;27.95;;;12.60;99.90;;;;;;6375174;22;20366;-94
2021/08/19 05:33:48;;;;;;;80.65;28.55;;;12.60;99.90;;;;;;6375506;22;20373;-95
2021/08/19 05:36:16;;;;;;;80.47;28.33;;;12.70;99.90;;;;;;6375003;22;20870;-93
2021/08/19 05:38:43;;;;;;;76.97;26.63;;;12.70;99.90;;;;;;6374732;22;20385;-95
2021/08/19 05:41:11;;;;;;;68.38;25.10;;;12.70;99.90;;;;;;6375389;22;20384;-94
2021/08/19 05:43:38;;;;;;;80.32;26.17;;;12.70;99.90;;;;;;6374635;22;20380;-93
2021/08/19 05:46:08;;;;;;;89.10;28.45;;;12.70;99.90;;;;;;6375066;22;20388;-94
2021/08/19 05:48:36;;;;;;;86.90;27.07;;;12.70;99.90;;;;;;6375030;22;20373;-94
2021/08/19 05:51:03;;;;;;;76.25;25.25;;;12.80;99.90;;;;;;6375039;22;20512;-94
2021/08/19 05:53:30;;;;;;;56.22;22.15;;;12.70;99.90;;;;;;6375126;22;20373;-94
2021/08/19 05:55:57;;;;;;;55.20;20.65;;;12.90;99.90;;;;;;6375286;22;20377;-93
2021/08/19 05:58:24;;;;;;;62.33;22.42;;;13.00;99.90;;;;;;6374583;22;20377;-95
2021/08/19 06:00:52;;;;;;;55.73;22.13;;;13.00;99.90;;;;;;6375415;22;20867;-92
2021/08/19 06:03:20;;;;;;;48.53;19.63;;;13.00;99.90;;;;;;6374987;22;20413;-93
2021/08/19 06:05:48;;;;;;;46.15;19.55;;;13.10;99.90;;;;;;6375175;22;20456;-94
2021/08/19 06:08:15;;;;;;;51.83;19.33;;;13.10;99.90;;;;;;6375298;22;20422;-93
2021/08/19 06:10:43;;;;;;;46.65;19.92;;;13.10;99.90;;;;;;6376827;22;20476;-96
2021/08/19 06:13:13;;;;;;;52.33;20.33;;;13.10;99.90;;;;;;6377655;22;20825;-93
2021/08/19 06:15:41;;;;;;;49.45;19.95;;;13.20;99.90;;;;;;6397459;22;20365;-95
2021/08/19 06:18:15;;;;;;;45.43;18.83;;;13.20;99.90;;;;;;6383243;22;20373;-94
2021/08/19 06:20:42;;;;;;;45.05;19.63;;;13.30;99.90;;;;;;6380280;22;20380;-96
2021/08/19 06:23:18;;;;;;;42.38;18.80;;;13.40;99.90;;;;;;6386293;22;20377;-96
2021/08/19 06:26:56;;;;;;;39.72;17.48;;;13.60;99.90;;;;;;6382271;22;20373;-95
2021/08/19 06:35:33;;;;;;;38.22;17.38;;;14.10;99.90;;;;;;6345329;22;20393;-95
2021/08/19 06:39:05;;;;;;;32.17;15.77;;;14.20;99.90;;;;;;6327576;22;20381;-96
2021/08/19 06:41:59;;;;;;;34.70;16.52;;;14.40;99.90;;;;;;6163563;23;20386;-96
2021/08/19 06:44:41;;;;;;;33.72;16.67;;;14.60;99.90;;;;;;6162790;23;21154;-95
2021/08/19 06:47:22;;;;;;;34.45;16.73;;;14.70;99.90;;;;;;6164187;23;20386;-96
2021/08/19 06:50:16;;;;;;;35.78;16.92;;;14.70;99.90;;;;;;6162231;23;20410;-96
2021/08/19 06:56:15;;;;;;;;;;;;;;;;;;;;;
2021/08/19 06:58:54;;;;;;;33.83;15.85;;;14.70;99.90;;;;;;6162128;23;20390;-96
2021/08/19 07:01:28;;;;;;;32.92;15.43;;;14.90;99.90;;;;;;6160578;23;20391;-96
2021/08/19 07:04:16;;;;;;;33.92;16.30;;;14.80;99.90;;;;;;6164826;23;20394;-96
2021/08/19 07:06:45;;;;;;;35.72;15.77;;;15.00;99.90;;;;;;6189467;23;20453;-96
2021/08/19 07:09:19;;;;;;;30.63;15.45;;;15.10;99.90;;;;;;6163903;23;20387;-95
2021/08/19 07:11:54;;;;;;;34.30;16.23;;;15.10;99.90;;;;;;6162455;23;20438;-95
2021/08/19 07:14:25;;;;;;;34.40;16.50;;;15.00;99.90;;;;;;6138450;23;20450;-96
2021/08/19 07:17:21;;;;;;;32.47;15.57;;;15.00;99.90;;;;;;6204351;22;20766;-96
2021/08/19 07:19:54;;;;;;;35.40;16.73;;;14.90;99.90;;;;;;6341834;22;20438;-96
2021/08/19 07:25:18;;;;;;;32.85;16.02;;;14.80;99.90;;;;;;6218771;23;20419;-95
2021/08/19 07:27:48;;;;;;;33.87;16.50;;;15.00;99.90;;;;;;6221393;23;20426;-96
2021/08/19 07:30:18;;;;;;;26.48;14.60;;;15.10;99.90;;;;;;6221693;23;20427;-96
2021/08/19 07:32:45;;;;;;;26.80;14.77;;;15.20;99.90;;;;;;6219287;23;20474;-96
2021/08/19 07:35:21;;;;;;;26.55;14.10;;;15.50;99.90;;;;;;6219553;23;20699;-96
2021/08/19 07:37:54;;;;;;;26.73;14.32;;;15.60;99.90;;;;;;6222638;23;20397;-95
2021/08/19 07:40:39;;;;;;;24.40;12.70;;;15.70;99.90;;;;;;6226217;23;20454;-96
2021/08/19 07:43:07;;;;;;;25.40;13.63;;;15.80;99.90;;;;;;6193042;23;20454;-95
2021/08/19 07:45:37;;;;;;;27.90;14.33;;;15.60;99.90;;;;;;6217113;23;20458;-95
2021/08/19 07:48:12;;;;;;;32.13;15.18;;;15.60;99.90;;;;;;6219313;23;20442;-95
2021/08/19 07:50:50;;;;;;;27.77;13.82;;;15.70;99.90;;;;;;6224058;23;20422;-96
2021/08/19 07:54:30;;;;;;;28.10;14.68;;;15.60;99.90;;;;;;6197326;23;20387;-96
2021/08/19 07:56:59;;;;;;;31.43;15.40;;;15.80;99.90;;;;;;6212306;22;20387;-93
2021/08/19 07:59:48;;;;;;;;;;;;;;;;;;;;;
2021/08/19 08:03:19;;;;;;;28.75;15.60;;;15.70;99.90;;;;;;6379249;22;20383;-96
2021/08/19 08:06:19;;;;;;;32.72;15.25;;;15.50;99.90;;;;;;6346748;22;20425;-95
2021/08/19 08:09:25;;;;;;;32.00;15.80;;;15.50;99.90;;;;;;6354516;22;20385;-96
2021/08/19 08:15:38;;;;;;;24.80;13.68;;;15.40;99.90;;;;;;6381699;22;20405;-93
2021/08/19 08:18:11;;;;;;;25.70;14.13;;;15.50;99.90;;;;;;6349107;22;20379;-93
2021/08/19 08:20:39;;;;;;;27.63;14.50;;;15.50;99.90;;;;;;6350746;22;20382;-94
2021/08/19 08:23:06;;;;;;;22.10;14.00;;;15.60;99.90;;;;;;6349429;22;20454;-95
2021/08/19 08:25:35;;;;;;;31.55;13.63;;;15.60;99.90;;;;;;6346689;22;20501;-93
2021/08/19 08:28:08;;;;;;;25.60;14.50;;;15.50;99.90;;;;;;6345315;22;20390;-93
2021/08/19 08:30:41;;;;;;;32.45;15.25;;;15.50;99.90;;;;;;6346616;22;20395;-95
2021/08/19 08:33:08;;;;;;;26.98;15.32;;;15.50;99.90;;;;;;6345933;22;20403;-94
2021/08/19 08:35:39;;;;;;;24.55;15.43;;;15.50;99.90;;;;;;6345703;22;20465;-93
2021/08/19 08:38:08;;;;;;;27.38;15.05;;;15.70;99.90;;;;;;6345343;22;20386;-94
2021/08/19 08:40:37;;;;;;;22.42;13.60;;;15.90;99.90;;;;;;6345234;22;20402;-94
2021/08/19 08:43:06;;;;;;;19.83;11.93;;;16.00;99.90;;;;;;6344858;22;20451;-96
2021/08/19 08:45:37;;;;;;;21.00;11.45;;;16.20;99.90;;;;;;6346608;22;20657;-95
2021/08/19 08:48:12;;;;;;;18.17;11.37;;;16.30;99.90;;;;;;6345123;22;20466;-94
2021/08/19 08:50:45;;;;;;;23.50;12.10;;;16.30;99.90;;;;;;6344465;22;20483;-94
2021/08/19 08:53:13;;;;;;;17.55;10.85;;;16.30;99.90;;;;;;6345623;22;20379;-95
2021/08/19 08:55:41;;;;;;;17.67;10.48;;;16.40;99.90;;;;;;6344489;22;20383;-94
2021/08/19 08:58:08;;;;;;;19.30;10.18;;;16.50;99.90;;;;;;6343560;22;20383;-93
2021/08/19 09:00:39;;;;;;;16.48;9.90;;;16.30;99.90;;;;;;6345491;22;20556;-94
2021/08/19 09:03:15;;;;;;;17.43;10.40;;;16.20;99.90;;;;;;6344695;22;20387;-94
2021/08/19 09:05:51;;;;;;;17.45;9.73;;;16.20;99.90;;;;;;6343381;22;20387;-94
2021/08/19 09:08:25;;;;;;;14.93;9.25;;;16.40;99.90;;;;;;6344991;22;20487;-94
2021/08/19 09:10:55;;;;;;;17.02;9.75;;;16.50;99.90;;;;;;6345047;22;20390;-94
2021/08/19 09:13:27;;;;;;;17.75;10.10;;;16.60;99.90;;;;;;6343451;22;20436;-94
2021/08/19 09:16:18;;;;;;;19.55;9.48;;;16.70;99.90;;;;;;6344637;22;20399;-95
2021/08/19 09:18:46;;;;;;;18.67;8.97;;;17.30;99.90;;;;;;6343820;22;20458;-94
2021/08/19 09:21:19;;;;;;;19.05;9.57;;;17.40;99.90;;;;;;6343638;22;20386;-94
2021/08/19 09:23:46;;;;;;;15.57;9.27;;;17.20;99.90;;;;;;6345190;22;20387;-93
2021/08/19 09:26:27;;;;;;;19.30;9.65;;;17.10;99.90;;;;;;6349418;22;20381;-93
2021/08/19 09:29:31;;;;;;;16.40;9.82;;;16.90;99.90;;;;;;6343103;22;20379;-95
2021/08/19 09:32:11;;;;;;;18.45;10.18;;;16.60;99.90;;;;;;6343989;22;20390;-95
2021/08/19 09:34:40;;;;;;;15.63;9.88;;;16.40;99.90;;;;;;6345150;22;20378;-94
2021/08/19 09:37:12;;;;;;;17.83;11.32;;;16.20;99.90;;;;;;6348259;22;20383;-94
2021/08/19 09:39:45;;;;;;;19.90;11.18;;;15.90;99.90;;;;;;6366438;22;20390;-95
2021/08/19 09:42:13;;;;;;;19.30;11.50;;;15.70;99.90;;;;;;6347475;22;20382;-94
2021/08/19 09:44:43;;;;;;;20.33;12.18;;;15.50;99.90;;;;;;6351359;22;20392;-96
2021/08/19 09:47:45;;;;;;;21.80;12.63;;;15.50;99.90;;;;;;6352092;22;20362;-96
2021/08/19 09:50:20;;;;;;;16.98;10.63;;;15.40;99.90;;;;;;6355158;22;20467;-93
2021/08/19 09:52:50;;;;;;;19.67;12.00;;;15.70;99.90;;;;;;6344055;22;20437;-92
2021/08/19 09:55:29;;;;;;;24.17;12.43;;;15.50;99.90;;;;;;6343633;22;20755;-93
2021/08/19 09:58:00;;;;;;;23.35;13.75;;;15.20;99.90;;;;;;6344618;22;20729;-93
2021/08/19 10:00:41;;;;;;;25.75;15.00;;;15.10;99.90;;;;;;6353097;22;20418;-94
2021/08/19 10:03:19;;;;;;;25.15;14.23;;;15.20;99.90;;;;;;6329698;22;20364;-92
2021/08/19 10:05:47;;;;;;;21.95;13.48;;;15.50;99.90;;;;;;6378770;22;20383;-95
2021/08/19 10:08:16;;;;;;;23.17;13.03;;;15.80;99.90;;;;;;6350343;22;20363;-94
2021/08/19 10:10:58;;;;;;;22.00;13.63;;;15.90;99.90;;;;;;6376111;22;20470;-93
2021/08/19 10:13:42;;;;;;;24.33;14.38;;;16.00;99.90;;;;;;6356537;22;20399;-93
2021/08/19 10:16:34;;;;;;;22.67;13.63;;;16.00;99.90;;;;;;6352320;22;20424;-94
2021/08/19 10:19:35;;;;;;;23.97;14.37;;;15.90;99.90;;;;;;6355802;22;20422;-95
2021/08/19 10:22:38;;;;;;;29.17;17.40;;;15.70;99.90;;;;;;6309144;22;20414;-94
2021/08/19 10:25:13;;;;;;;30.40;17.77;;;15.40;99.90;;;;;;6259780;22;20388;-95
2021/08/19 10:31:49;;;;;;;26.95;16.42;;;15.30;99.90;;;;;;6293332;22;20399;-96
2021/08/19 10:34:53;;;;;;;25.52;14.77;;;15.70;99.90;;;;;;6255737;22;20403;-96
2021/08/19 10:37:58;;;;;;;16.43;9.80;;;16.10;99.90;;;;;;6263017;22;20475;-95
2021/08/19 10:40:52;;;;;;;18.80;10.57;;;16.20;99.90;;;;;;6285346;22;20359;-95
2021/08/19 10:43:32;;;;;;;21.17;12.70;;;16.10;99.90;;;;;;6284764;22;20380;-93
2021/08/19 10:46:17;;;;;;;24.10;15.03;;;16.20;99.90;;;;;;6258453;22;20382;-93
2021/08/19 10:49:00;;;;;;;25.75;15.30;;;16.20;99.90;;;;;;6260819;22;20388;-96
2021/08/19 10:51:38;;;;;;;26.98;13.82;;;16.40;99.90;;;;;;6256550;22;20467;-94
2021/08/19 10:54:41;;;;;;;23.48;14.23;;;16.60;99.90;;;;;;6257068;22;20376;-96
2021/08/19 10:57:32;;;;;;;21.57;12.80;;;17.00;99.90;;;;;;6257068;22;20388;-95
2021/08/19 11:00:06;;;;;;;18.90;11.17;;;17.40;99.90;;;;;;6258577;22;20404;-96
2021/08/19 11:02:41;;;;;;;18.75;11.80;;;17.80;99.90;;;;;;6319459;22;20383;-95
2021/08/19 11:05:21;;;;;;;19.02;11.40;;;17.90;99.90;;;;;;6344059;22;20385;-95
2021/08/19 11:08:01;;;;;;;13.57;8.20;;;17.80;99.90;;;;;;6342995;22;20383;-95
2021/08/19 11:10:35;;;;;;;14.90;8.43;;;18.00;99.90;;;;;;6371327;22;20481;-92
2021/08/19 11:13:14;;;;;;;19.23;10.10;;;18.10;99.90;;;;;;6342901;22;20406;-94
2021/08/19 11:15:48;;;;;;;18.70;11.07;;;18.30;99.90;;;;;;6344409;22;20712;-95
2021/08/19 11:18:31;;;;;;;12.27;7.47;;;18.60;99.90;;;;;;6343898;22;20688;-96
2021/08/19 11:21:00;;;;;;;10.35;6.50;;;18.80;99.90;;;;;;6366017;22;20431;-94
2021/08/19 11:23:36;;;;;;;13.30;6.40;;;18.80;99.90;;;;;;6352898;22;20633;-96
2021/08/19 11:26:08;;;;;;;9.53;5.53;;;18.50;99.90;;;;;;6346287;22;20389;-95
2021/08/19 11:28:42;;;;;;;11.38;7.10;;;17.90;99.90;;;;;;6344605;22;20407;-94
2021/08/19 11:31:14;;;;;;;14.88;6.15;;;17.40;99.90;;;;;;6345275;22;20379;-95
2021/08/19 11:33:43;;;;;;;10.68;6.22;;;17.00;99.90;;;;;;6345328;22;20402;-96
2021/08/19 11:36:13;;;;;;;12.27;6.35;;;16.80;99.90;;;;;;6345906;22;20379;-94
2021/08/19 11:38:43;;;;;;;10.20;6.65;;;16.60;99.90;;;;;;6345725;22;20367;-94
2021/08/19 11:41:21;;;;;;;10.55;6.35;;;16.60;99.90;;;;;;6345177;22;20455;-94
2021/08/19 11:43:49;;;;;;;11.35;6.35;;;16.70;99.90;;;;;;6344406;22;20386;-95
2021/08/19 11:46:24;;;;;;;11.70;7.37;;;16.90;99.90;;;;;;6345429;22;20399;-95
2021/08/19 11:48:53;;;;;;;7.38;5.20;;;17.20;99.90;;;;;;6344843;22;20387;-95
2021/08/19 11:51:21;;;;;;;8.98;4.80;;;17.30;99.90;;;;;;6345955;22;20808;-94
2021/08/19 11:53:53;;;;;;;7.40;4.13;;;17.40;99.90;;;;;;6344392;22;20440;-94
2021/08/19 11:56:21;;;;;;;6.20;3.77;;;17.50;99.90;;;;;;6345305;22;20946;-94
2021/08/19 11:58:50;;;;;;;5.95;3.22;;;17.50;99.90;;;;;;6344797;22;20965;-93
2021/08/19 12:01:17;;;;;;;8.83;3.43;;;17.90;99.90;;;;;;6345805;22;20466;-94
2021/08/19 12:03:47;;;;;;;5.33;3.40;;;18.30;99.90;;;;;;6346513;22;20466;-90
2021/08/19 12:06:18;;;;;;;7.77;3.50;;;18.50;99.90;;;;;;6344769;22;20387;-93
2021/08/19 12:08:57;;;;;;;4.28;2.90;;;18.70;99.90;;;;;;6345609;22;20846;-93
2021/08/19 12:11:32;;;;;;;4.82;2.75;;;18.90;99.90;;;;;;6344973;22;20746;-93
2021/08/19 12:14:06;;;;;;;5.75;3.17;;;19.40;99.90;;;;;;6344835;22;20379;-92
2021/08/19 12:16:33;;;;;;;5.35;2.90;;;19.80;99.90;;;;;;6344239;22;20470;-92
2021/08/19 12:19:04;;;;;;;5.07;3.00;;;20.20;99.90;;;;;;6344282;22;20518;-93
2021/08/19 12:21:32;;;;;;;5.33;2.73;;;20.60;99.90;;;;;;6372869;22;20378;-93
2021/08/19 12:24:11;;;;;;;4.20;2.58;;;20.40;99.90;;;;;;6345458;22;20716;-91
2021/08/19 12:26:38;;;;;;;6.20;3.25;;;20.10;99.90;;;;;;6345265;22;20379;-91
2021/08/19 12:29:05;;;;;;;4.68;3.10;;;19.50;99.90;;;;;;6344149;22;20848;-96
2021/08/19 12:31:47;;;;;;;7.68;3.20;;;18.90;99.90;;;;;;6343870;22;20395;-92
2021/08/19 12:34:14;;;;;;;5.38;2.92;;;18.70;99.90;;;;;;6346320;22;20413;-96
2021/08/19 12:36:42;;;;;;;8.13;3.00;;;18.90;99.90;;;;;;6347564;22;20381;-96
2021/08/19 12:39:24;;;;;;;5.63;3.13;;;19.20;99.90;;;;;;6346372;22;20435;-96
2021/08/19 12:42:06;;;;;;;6.47;3.30;;;19.20;99.90;;;;;;6343886;22;20379;-94
2021/08/19 12:44:34;;;;;;;5.97;3.57;;;19.60;99.90;;;;;;6348878;22;20378;-96
2021/08/19 12:47:01;;;;;;;4.97;3.67;;;20.10;99.90;;;;;;6344854;22;20562;-95
2021/08/19 12:49:34;;;;;;;7.10;4.20;;;20.00;99.90;;;;;;6355516;22;20401;-91
2021/08/19 12:52:14;;;;;;;5.30;3.30;;;19.90;99.90;;;;;;6387864;22;20394;-90
2021/08/19 12:57:47;;;;;;;5.43;3.50;;;21.40;99.90;;;;;;6357237;22;20442;-91
2021/08/19 13:00:23;;;;;;;7.28;3.58;;;21.60;99.90;;;;;;6362375;22;20403;-91
2021/08/19 13:02:51;;;;;;;8.15;3.70;;;21.40;99.90;;;;;;6367665;22;20528;-91
2021/08/19 13:05:30;;;;;;;6.90;3.70;;;21.00;99.90;;;;;;6347336;22;20394;-90
2021/08/19 13:07:58;;;;;;;7.67;3.90;;;21.00;99.90;;;;;;6388819;22;20383;-91
2021/08/19 13:10:27;;;;;;;7.35;3.80;;;21.20;99.90;;;;;;6337328;22;20379;-91
2021/08/19 13:12:55;;;;;;;6.43;3.90;;;21.90;99.90;;;;;;6319520;22;20745;-95
2021/08/19 13:15:23;;;;;;;8.05;3.38;;;22.50;99.90;;;;;;6344520;22;20694;-94
2021/08/19 13:17:50;;;;;;;6.97;4.00;;;22.40;99.90;;;;;;6343824;22;20379;-91